sensor_id;sensor_type;location;lat;lon;timestamp;temperature;humidity
18083;DHT22;9168;51.194;6.840;2023-02-13T00:01:12;9.10;99.90
18083;DHT22;9168;51.194;6.840;2023-02-13T00:03:39;9.10;99.90
18083;DHT22;9168;51.194;6.840;2023-02-13T00:06:06;9.10;99.90
18083;DHT22;9168;51.194;6.840;2023-02-13T00:08:33;9.10;99.90
18083;DHT22;9168;51.194;6.840;2023-02-13T00:11:01;9.00;99.90
18083;DHT22;9168;51.194;6.840;2023-02-13T00:13:28;9.00;99.90
18083;DHT22;9168;51.194;6.840;2023-02-13T00:15:57;9.00;99.90
18083;DHT22;9168;51.194;6.840;2023-02-13T00:18:25;9.10;99.90
18083;DHT22;9168;51.194;6.840;2023-02-13T00:20:59;9.10;99.90
18083;DHT22;9168;51.194;6.840;2023-02-13T00:23:27;9.10;99.90
18083;DHT22;9168;51.194;6.840;2023-02-13T00:25:54;9.10;99.90
18083;DHT22;9168;51.194;6.840;2023-02-13T00:28:21;9.10;99.90
18083;DHT22;9168;51.194;6.840;2023-02-13T00:30:48;9.10;99.90
18083;DHT22;9168;51.194;6.840;2023-02-13T00:33:16;9.00;99.90
18083;DHT22;9168;51.194;6.840;2023-02-13T00:35:43;9.00;99.90
18083;DHT22;9168;51.194;6.840;2023-02-13T00:38:10;9.00;99.90
18083;DHT22;9168;51.194;6.840;2023-02-13T00:40:37;9.00;99.90
18083;DHT22;9168;51.194;6.840;2023-02-13T00:43:04;9.00;99.90
18083;DHT22;9168;51.194;6.840;2023-02-13T00:45:31;9.00;99.90
18083;DHT22;9168;51.194;6.840;2023-02-13T00:47:57;8.90;99.90
18083;DHT22;9168;51.194;6.840;2023-02-13T00:50:26;8.90;99.90
18083;DHT22;9168;51.194;6.840;2023-02-13T00:52:52;8.90;99.90
18083;DHT22;9168;51.194;6.840;2023-02-13T00:55:19;8.90;99.90
18083;DHT22;9168;51.194;6.840;2023-02-13T00:57:46;8.90;99.90
18083;DHT22;9168;51.194;6.840;2023-02-13T01:00:14;8.90;99.90
18083;DHT22;9168;51.194;6.840;2023-02-13T01:02:41;8.90;99.90
18083;DHT22;9168;51.194;6.840;2023-02-13T01:05:08;8.90;99.90
18083;DHT22;9168;51.194;6.840;2023-02-13T01:07:37;9.00;99.90
18083;DHT22;9168;51.194;6.840;2023-02-13T01:10:05;9.00;99.90
18083;DHT22;9168;51.194;6.840;2023-02-13T01:12:32;9.00;99.90
18083;DHT22;9168;51.194;6.840;2023-02-13T01:14:59;8.90;99.90
18083;DHT22;9168;51.194;6.840;2023-02-13T01:17:25;8.90;99.90
18083;DHT22;9168;51.194;6.840;2023-02-13T01:19:52;8.90;99.90
18083;DHT22;9168;51.194;6.840;2023-02-13T01:22:19;8.90;99.90
18083;DHT22;9168;51.194;6.840;2023-02-13T01:24:48;8.90;99.90
18083;DHT22;9168;51.194;6.840;2023-02-13T01:27:15;9.00;99.90
18083;DHT22;9168;51.194;6.840;2023-02-13T01:29:41;9.00;99.90
18083;DHT22;9168;51.194;6.840;2023-02-13T01:32:08;8.90;99.90
18083;DHT22;9168;51.194;6.840;2023-02-13T01:34:35;8.90;99.90
18083;DHT22;9168;51.194;6.840;2023-02-13T01:37:02;8.90;99.90
18083;DHT22;9168;51.194;6.840;2023-02-13T01:39:29;8.90;99.90
18083;DHT22;9168;51.194;6.840;2023-02-13T01:41:57;8.80;99.90
18083;DHT22;9168;51.194;6.840;2023-02-13T01:44:45;8.90;99.90
18083;DHT22;9168;51.194;6.840;2023-02-13T01:47:16;8.90;99.90
18083;DHT22;9168;51.194;6.840;2023-02-13T01:49:44;8.90;99.90
18083;DHT22;9168;51.194;6.840;2023-02-13T01:52:12;8.90;99.90
18083;DHT22;9168;51.194;6.840;2023-02-13T01:54:39;8.90;99.90
18083;DHT22;9168;51.194;6.840;2023-02-13T01:57:11;8.80;99.90
18083;DHT22;9168;51.194;6.840;2023-02-13T01:59:42;8.90;99.90
18083;DHT22;9168;51.194;6.840;2023-02-13T02:02:10;8.90;99.90
18083;DHT22;9168;51.194;6.840;2023-02-13T02:04:39;8.80;99.90
18083;DHT22;9168;51.194;6.840;2023-02-13T02:07:11;8.80;99.90
18083;DHT22;9168;51.194;6.840;2023-02-13T02:09:41;8.90;99.90
18083;DHT22;9168;51.194;6.840;2023-02-13T02:12:13;8.90;99.90
18083;DHT22;9168;51.194;6.840;2023-02-13T02:14:44;8.90;99.90
18083;DHT22;9168;51.194;6.840;2023-02-13T02:17:11;8.80;99.90
18083;DHT22;9168;51.194;6.840;2023-02-13T02:19:41;8.80;99.90
18083;DHT22;9168;51.194;6.840;2023-02-13T02:28:46;8.80;99.90
18083;DHT22;9168;51.194;6.840;2023-02-13T02:31:53;8.80;99.90
18083;DHT22;9168;51.194;6.840;2023-02-13T02:34:28;8.80;99.90
18083;DHT22;9168;51.194;6.840;2023-02-13T02:37:06;8.80;99.90
18083;DHT22;9168;51.194;6.840;2023-02-13T02:39:43;8.80;99.90
18083;DHT22;9168;51.194;6.840;2023-02-13T02:42:21;8.80;99.90
18083;DHT22;9168;51.194;6.840;2023-02-13T02:44:59;8.70;99.90
18083;DHT22;9168;51.194;6.840;2023-02-13T02:47:34;8.70;99.90
18083;DHT22;9168;51.194;6.840;2023-02-13T02:50:34;8.70;99.90
18083;DHT22;9168;51.194;6.840;2023-02-13T02:53:08;8.80;99.90
18083;DHT22;9168;51.194;6.840;2023-02-13T02:55:40;8.80;99.90
18083;DHT22;9168;51.194;6.840;2023-02-13T02:58:12;8.80;99.90
18083;DHT22;9168;51.194;6.840;2023-02-13T03:00:59;8.70;99.90
18083;DHT22;9168;51.194;6.840;2023-02-13T03:03:47;8.70;99.90
18083;DHT22;9168;51.194;6.840;2023-02-13T03:06:36;8.70;99.90
18083;DHT22;9168;51.194;6.840;2023-02-13T03:09:09;8.70;99.90
18083;DHT22;9168;51.194;6.840;2023-02-13T03:11:54;8.70;99.90
18083;DHT22;9168;51.194;6.840;2023-02-13T03:14:39;8.70;99.90
18083;DHT22;9168;51.194;6.840;2023-02-13T03:17:09;8.60;99.90
18083;DHT22;9168;51.194;6.840;2023-02-13T03:20:03;8.70;99.90
18083;DHT22;9168;51.194;6.840;2023-02-13T03:23:11;8.60;99.90
18083;DHT22;9168;51.194;6.840;2023-02-13T03:25:51;8.60;99.90
18083;DHT22;9168;51.194;6.840;2023-02-13T03:28:26;8.60;99.90
18083;DHT22;9168;51.194;6.840;2023-02-13T03:31:17;8.60;99.90
18083;DHT22;9168;51.194;6.840;2023-02-13T03:33:55;8.60;99.90
18083;DHT22;9168;51.194;6.840;2023-02-13T03:36:32;8.60;99.90
18083;DHT22;9168;51.194;6.840;2023-02-13T03:39:21;8.60;99.90
18083;DHT22;9168;51.194;6.840;2023-02-13T03:41:53;8.70;99.90
18083;DHT22;9168;51.194;6.840;2023-02-13T03:44:26;8.60;99.90
18083;DHT22;9168;51.194;6.840;2023-02-13T03:46:57;8.60;99.90
18083;DHT22;9168;51.194;6.840;2023-02-13T03:49:28;8.60;99.90
18083;DHT22;9168;51.194;6.840;2023-02-13T03:52:20;8.60;99.90
18083;DHT22;9168;51.194;6.840;2023-02-13T03:54:53;8.60;99.90
18083;DHT22;9168;51.194;6.840;2023-02-13T03:57:40;8.60;99.90
18083;DHT22;9168;51.194;6.840;2023-02-13T04:00:28;8.60;99.90
18083;DHT22;9168;51.194;6.840;2023-02-13T04:03:04;8.60;99.90
18083;DHT22;9168;51.194;6.840;2023-02-13T04:05:37;8.60;99.90
18083;DHT22;9168;51.194;6.840;2023-02-13T04:08:06;8.60;99.90
18083;DHT22;9168;51.194;6.840;2023-02-13T04:10:36;8.60;99.90
18083;DHT22;9168;51.194;6.840;2023-02-13T04:13:08;8.60;99.90
18083;DHT22;9168;51.194;6.840;2023-02-13T04:15:40;8.50;99.90
18083;DHT22;9168;51.194;6.840;2023-02-13T04:18:10;8.50;99.90
18083;DHT22;9168;51.194;6.840;2023-02-13T04:20:39;8.60;99.90
18083;DHT22;9168;51.194;6.840;2023-02-13T04:23:09;8.50;99.90
18083;DHT22;9168;51.194;6.840;2023-02-13T04:25:38;8.50;99.90
18083;DHT22;9168;51.194;6.840;2023-02-13T04:28:06;8.50;99.90
18083;DHT22;9168;51.194;6.840;2023-02-13T04:30:33;8.50;99.90
18083;DHT22;9168;51.194;6.840;2023-02-13T04:32:59;8.50;99.90
18083;DHT22;9168;51.194;6.840;2023-02-13T04:35:26;8.50;99.90
18083;DHT22;9168;51.194;6.840;2023-02-13T04:37:54;8.50;99.90
18083;DHT22;9168;51.194;6.840;2023-02-13T04:40:22;8.50;99.90
18083;DHT22;9168;51.194;6.840;2023-02-13T04:42:49;8.50;99.90
18083;DHT22;9168;51.194;6.840;2023-02-13T04:45:16;8.50;99.90
18083;DHT22;9168;51.194;6.840;2023-02-13T04:47:49;8.40;99.90
18083;DHT22;9168;51.194;6.840;2023-02-13T04:50:17;8.50;99.90
18083;DHT22;9168;51.194;6.840;2023-02-13T04:52:44;8.50;99.90
18083;DHT22;9168;51.194;6.840;2023-02-13T04:55:11;8.50;99.90
18083;DHT22;9168;51.194;6.840;2023-02-13T04:57:39;8.50;99.90
18083;DHT22;9168;51.194;6.840;2023-02-13T05:00:07;8.40;99.90
18083;DHT22;9168;51.194;6.840;2023-02-13T05:02:34;8.40;99.90
18083;DHT22;9168;51.194;6.840;2023-02-13T05:05:01;8.40;99.90
18083;DHT22;9168;51.194;6.840;2023-02-13T05:07:28;8.40;99.90
18083;DHT22;9168;51.194;6.840;2023-02-13T05:09:55;8.40;99.90
18083;DHT22;9168;51.194;6.840;2023-02-13T05:12:22;8.40;99.90
18083;DHT22;9168;51.194;6.840;2023-02-13T05:14:50;8.40;99.90
18083;DHT22;9168;51.194;6.840;2023-02-13T05:17:17;8.40;99.90
18083;DHT22;9168;51.194;6.840;2023-02-13T05:19:43;8.40;99.90
18083;DHT22;9168;51.194;6.840;2023-02-13T05:22:10;8.30;99.90
18083;DHT22;9168;51.194;6.840;2023-02-13T05:24:55;8.30;99.90
18083;DHT22;9168;51.194;6.840;2023-02-13T05:27:22;8.30;99.90
18083;DHT22;9168;51.194;6.840;2023-02-13T05:29:50;8.30;99.90
18083;DHT22;9168;51.194;6.840;2023-02-13T05:32:17;8.30;99.90
18083;DHT22;9168;51.194;6.840;2023-02-13T05:34:44;8.30;99.90
18083;DHT22;9168;51.194;6.840;2023-02-13T05:37:11;8.30;99.90
18083;DHT22;9168;51.194;6.840;2023-02-13T05:39:37;8.30;99.90
18083;DHT22;9168;51.194;6.840;2023-02-13T05:42:05;8.30;99.90
18083;DHT22;9168;51.194;6.840;2023-02-13T05:44:32;8.30;99.90
18083;DHT22;9168;51.194;6.840;2023-02-13T05:47:00;8.30;99.90
18083;DHT22;9168;51.194;6.840;2023-02-13T05:49:27;8.20;99.90
18083;DHT22;9168;51.194;6.840;2023-02-13T05:51:54;8.20;99.90
18083;DHT22;9168;51.194;6.840;2023-02-13T05:54:20;8.20;99.90
18083;DHT22;9168;51.194;6.840;2023-02-13T05:56:47;8.10;99.90
18083;DHT22;9168;51.194;6.840;2023-02-13T05:59:14;8.10;99.90
18083;DHT22;9168;51.194;6.840;2023-02-13T06:01:41;8.10;99.90
18083;DHT22;9168;51.194;6.840;2023-02-13T06:04:09;8.00;99.90
18083;DHT22;9168;51.194;6.840;2023-02-13T06:06:36;8.00;99.90
18083;DHT22;9168;51.194;6.840;2023-02-13T06:09:03;7.90;99.90
18083;DHT22;9168;51.194;6.840;2023-02-13T06:11:33;7.90;99.90
18083;DHT22;9168;51.194;6.840;2023-02-13T06:14:09;7.90;99.90
18083;DHT22;9168;51.194;6.840;2023-02-13T06:16:36;7.90;99.90
18083;DHT22;9168;51.194;6.840;2023-02-13T06:19:03;7.90;99.90
18083;DHT22;9168;51.194;6.840;2023-02-13T06:21:31;7.80;99.90
18083;DHT22;9168;51.194;6.840;2023-02-13T06:24:02;7.80;99.90
18083;DHT22;9168;51.194;6.840;2023-02-13T06:26:29;7.80;99.90
18083;DHT22;9168;51.194;6.840;2023-02-13T06:28:56;7.70;99.90
18083;DHT22;9168;51.194;6.840;2023-02-13T06:31:23;7.70;99.90
18083;DHT22;9168;51.194;6.840;2023-02-13T06:33:50;7.70;99.90
18083;DHT22;9168;51.194;6.840;2023-02-13T06:36:17;7.60;99.90
18083;DHT22;9168;51.194;6.840;2023-02-13T06:38:45;7.60;99.90
18083;DHT22;9168;51.194;6.840;2023-02-13T06:41:12;7.60;99.90
18083;DHT22;9168;51.194;6.840;2023-02-13T06:43:38;7.60;99.90
18083;DHT22;9168;51.194;6.840;2023-02-13T06:46:06;7.60;99.90
18083;DHT22;9168;51.194;6.840;2023-02-13T06:48:33;7.60;99.90
18083;DHT22;9168;51.194;6.840;2023-02-13T06:51:00;7.60;99.90
18083;DHT22;9168;51.194;6.840;2023-02-13T06:53:27;7.60;99.90
18083;DHT22;9168;51.194;6.840;2023-02-13T06:55:56;7.60;99.90
18083;DHT22;9168;51.194;6.840;2023-02-13T06:58:24;7.60;99.90
18083;DHT22;9168;51.194;6.840;2023-02-13T07:00:52;7.50;99.90
18083;DHT22;9168;51.194;6.840;2023-02-13T07:03:19;7.50;99.90
18083;DHT22;9168;51.194;6.840;2023-02-13T07:05:46;7.50;99.90
18083;DHT22;9168;51.194;6.840;2023-02-13T07:08:16;7.50;99.90
18083;DHT22;9168;51.194;6.840;2023-02-13T07:10:43;7.50;99.90
18083;DHT22;9168;51.194;6.840;2023-02-13T07:13:12;7.60;99.90
18083;DHT22;9168;51.194;6.840;2023-02-13T07:15:39;7.50;99.90
18083;DHT22;9168;51.194;6.840;2023-02-13T07:18:07;7.50;99.90
18083;DHT22;9168;51.194;6.840;2023-02-13T07:20:34;7.50;99.90
18083;DHT22;9168;51.194;6.840;2023-02-13T07:23:02;7.50;99.90
18083;DHT22;9168;51.194;6.840;2023-02-13T07:25:30;7.50;99.90
18083;DHT22;9168;51.194;6.840;2023-02-13T07:28:00;7.60;99.90
18083;DHT22;9168;51.194;6.840;2023-02-13T07:30:28;7.50;99.90
18083;DHT22;9168;51.194;6.840;2023-02-13T07:32:58;7.50;99.90
18083;DHT22;9168;51.194;6.840;2023-02-13T07:35:25;7.50;99.90
18083;DHT22;9168;51.194;6.840;2023-02-13T07:37:52;7.60;99.90
18083;DHT22;9168;51.194;6.840;2023-02-13T07:40:19;7.60;99.90
18083;DHT22;9168;51.194;6.840;2023-02-13T07:42:46;7.60;99.90
18083;DHT22;9168;51.194;6.840;2023-02-13T07:45:13;7.60;99.90
18083;DHT22;9168;51.194;6.840;2023-02-13T07:47:42;7.60;99.90
18083;DHT22;9168;51.194;6.840;2023-02-13T07:50:09;7.60;99.90
18083;DHT22;9168;51.194;6.840;2023-02-13T07:52:37;7.60;99.90
18083;DHT22;9168;51.194;6.840;2023-02-13T07:55:04;7.70;99.90
18083;DHT22;9168;51.194;6.840;2023-02-13T07:57:32;7.70;99.90
18083;DHT22;9168;51.194;6.840;2023-02-13T07:59:59;7.70;99.90
18083;DHT22;9168;51.194;6.840;2023-02-13T08:02:26;7.70;99.90
18083;DHT22;9168;51.194;6.840;2023-02-13T08:04:54;7.70;99.90
18083;DHT22;9168;51.194;6.840;2023-02-13T08:07:21;7.70;99.90
18083;DHT22;9168;51.194;6.840;2023-02-13T08:09:48;7.90;99.90
18083;DHT22;9168;51.194;6.840;2023-02-13T08:12:34;8.10;99.90
18083;DHT22;9168;51.194;6.840;2023-02-13T08:15:01;8.10;99.90
18083;DHT22;9168;51.194;6.840;2023-02-13T08:17:28;8.10;99.90
18083;DHT22;9168;51.194;6.840;2023-02-13T08:19:56;8.00;99.90
18083;DHT22;9168;51.194;6.840;2023-02-13T08:22:23;8.00;99.90
18083;DHT22;9168;51.194;6.840;2023-02-13T08:24:50;7.90;99.90
18083;DHT22;9168;51.194;6.840;2023-02-13T08:27:17;8.00;99.90
18083;DHT22;9168;51.194;6.840;2023-02-13T08:29:44;8.00;99.90
18083;DHT22;9168;51.194;6.840;2023-02-13T08:32:11;8.00;99.90
18083;DHT22;9168;51.194;6.840;2023-02-13T08:34:37;8.00;99.90
18083;DHT22;9168;51.194;6.840;2023-02-13T08:37:06;8.00;99.90
18083;DHT22;9168;51.194;6.840;2023-02-13T08:39:32;8.10;99.90
18083;DHT22;9168;51.194;6.840;2023-02-13T08:41:59;8.10;99.90
18083;DHT22;9168;51.194;6.840;2023-02-13T08:44:26;8.10;99.90
18083;DHT22;9168;51.194;6.840;2023-02-13T08:46:53;8.10;99.90
18083;DHT22;9168;51.194;6.840;2023-02-13T08:49:20;8.20;99.90
18083;DHT22;9168;51.194;6.840;2023-02-13T08:51:48;8.30;99.90
18083;DHT22;9168;51.194;6.840;2023-02-13T08:54:16;8.30;99.90
18083;DHT22;9168;51.194;6.840;2023-02-13T08:56:43;8.30;99.90
18083;DHT22;9168;51.194;6.840;2023-02-13T08:59:10;8.30;99.90
18083;DHT22;9168;51.194;6.840;2023-02-13T09:01:37;8.30;99.90
18083;DHT22;9168;51.194;6.840;2023-02-13T09:04:04;8.30;99.90
18083;DHT22;9168;51.194;6.840;2023-02-13T09:06:31;8.40;99.90
18083;DHT22;9168;51.194;6.840;2023-02-13T09:08:57;8.50;99.90
18083;DHT22;9168;51.194;6.840;2023-02-13T09:11:26;8.50;99.90
18083;DHT22;9168;51.194;6.840;2023-02-13T09:13:53;8.60;99.90
18083;DHT22;9168;51.194;6.840;2023-02-13T09:16:20;8.60;99.90
18083;DHT22;9168;51.194;6.840;2023-02-13T09:18:47;8.60;99.90
18083;DHT22;9168;51.194;6.840;2023-02-13T09:21:15;8.60;99.90
18083;DHT22;9168;51.194;6.840;2023-02-13T09:23:42;8.70;99.90
18083;DHT22;9168;51.194;6.840;2023-02-13T09:26:11;8.70;99.90
18083;DHT22;9168;51.194;6.840;2023-02-13T09:28:40;8.80;99.90
18083;DHT22;9168;51.194;6.840;2023-02-13T09:31:08;8.90;99.90
18083;DHT22;9168;51.194;6.840;2023-02-13T09:33:35;8.90;99.90
18083;DHT22;9168;51.194;6.840;2023-02-13T09:36:06;9.00;99.90
18083;DHT22;9168;51.194;6.840;2023-02-13T09:38:33;9.10;99.90
18083;DHT22;9168;51.194;6.840;2023-02-13T09:41:04;9.10;99.90
18083;DHT22;9168;51.194;6.840;2023-02-13T09:43:36;9.10;99.90
18083;DHT22;9168;51.194;6.840;2023-02-13T09:46:11;9.20;99.90
18083;DHT22;9168;51.194;6.840;2023-02-13T09:48:41;9.20;99.90
18083;DHT22;9168;51.194;6.840;2023-02-13T09:51:13;9.20;99.90
18083;DHT22;9168;51.194;6.840;2023-02-13T09:53:40;9.20;99.90
18083;DHT22;9168;51.194;6.840;2023-02-13T09:56:12;9.30;99.90
18083;DHT22;9168;51.194;6.840;2023-02-13T09:58:44;9.40;99.90
18083;DHT22;9168;51.194;6.840;2023-02-13T10:01:25;9.50;99.90
18083;DHT22;9168;51.194;6.840;2023-02-13T10:04:12;9.60;99.90
18083;DHT22;9168;51.194;6.840;2023-02-13T10:06:42;9.50;99.90
18083;DHT22;9168;51.194;6.840;2023-02-13T10:09:20;9.60;99.90
18083;DHT22;9168;51.194;6.840;2023-02-13T10:12:02;9.60;99.90
18083;DHT22;9168;51.194;6.840;2023-02-13T10:14:38;9.70;99.90
18083;DHT22;9168;51.194;6.840;2023-02-13T10:17:14;9.70;99.90
18083;DHT22;9168;51.194;6.840;2023-02-13T10:19:45;9.80;99.90
18083;DHT22;9168;51.194;6.840;2023-02-13T10:22:15;10.00;99.90
18083;DHT22;9168;51.194;6.840;2023-02-13T10:24:46;10.10;99.90
18083;DHT22;9168;51.194;6.840;2023-02-13T10:27:20;10.20;99.90
18083;DHT22;9168;51.194;6.840;2023-02-13T10:29:50;10.30;99.90
18083;DHT22;9168;51.194;6.840;2023-02-13T10:32:38;10.40;99.90
18083;DHT22;9168;51.194;6.840;2023-02-13T10:35:18;10.30;99.90
18083;DHT22;9168;51.194;6.840;2023-02-13T10:37:46;10.40;99.90
18083;DHT22;9168;51.194;6.840;2023-02-13T10:40:16;10.50;99.90
18083;DHT22;9168;51.194;6.840;2023-02-13T10:42:44;10.50;99.90
18083;DHT22;9168;51.194;6.840;2023-02-13T10:48:42;10.80;99.90
18083;DHT22;9168;51.194;6.840;2023-02-13T10:51:16;11.00;99.90
18083;DHT22;9168;51.194;6.840;2023-02-13T10:53:54;11.30;99.90
18083;DHT22;9168;51.194;6.840;2023-02-13T10:56:28;11.70;99.90
18083;DHT22;9168;51.194;6.840;2023-02-13T10:59:06;11.90;99.90
18083;DHT22;9168;51.194;6.840;2023-02-13T11:01:40;12.20;99.90
18083;DHT22;9168;51.194;6.840;2023-02-13T11:04:13;12.40;99.90
18083;DHT22;9168;51.194;6.840;2023-02-13T11:06:45;12.80;99.90
18083;DHT22;9168;51.194;6.840;2023-02-13T11:09:13;13.50;99.90
18083;DHT22;9168;51.194;6.840;2023-02-13T11:11:41;14.40;99.90
18083;DHT22;9168;51.194;6.840;2023-02-13T11:14:11;15.30;99.90
18083;DHT22;9168;51.194;6.840;2023-02-13T11:16:42;16.10;99.90
18083;DHT22;9168;51.194;6.840;2023-02-13T11:19:17;16.90;99.90
18083;DHT22;9168;51.194;6.840;2023-02-13T11:21:46;17.60;99.90
18083;DHT22;9168;51.194;6.840;2023-02-13T11:24:19;18.30;99.90
18083;DHT22;9168;51.194;6.840;2023-02-13T11:26:51;18.60;99.90
18083;DHT22;9168;51.194;6.840;2023-02-13T11:29:23;19.00;99.90
18083;DHT22;9168;51.194;6.840;2023-02-13T11:32:18;19.70;99.90
18083;DHT22;9168;51.194;6.840;2023-02-13T11:34:48;20.10;99.90
18083;DHT22;9168;51.194;6.840;2023-02-13T11:37:24;20.90;99.90
18083;DHT22;9168;51.194;6.840;2023-02-13T11:39:53;21.20;99.90
18083;DHT22;9168;51.194;6.840;2023-02-13T11:42:25;21.50;99.90
18083;DHT22;9168;51.194;6.840;2023-02-13T11:44:54;21.70;99.90
18083;DHT22;9168;51.194;6.840;2023-02-13T11:47:34;21.80;99.90
18083;DHT22;9168;51.194;6.840;2023-02-13T11:50:06;22.00;99.90
18083;DHT22;9168;51.194;6.840;2023-02-13T11:52:53;22.10;99.90
18083;DHT22;9168;51.194;6.840;2023-02-13T11:55:27;22.40;98.60
18083;DHT22;9168;51.194;6.840;2023-02-13T11:57:56;22.50;97.70
18083;DHT22;9168;51.194;6.840;2023-02-13T12:00:30;22.90;98.30
18083;DHT22;9168;51.194;6.840;2023-02-13T12:03:02;22.80;96.00
18083;DHT22;9168;51.194;6.840;2023-02-13T12:05:31;23.30;95.70
18083;DHT22;9168;51.194;6.840;2023-02-13T12:07:59;23.60;95.00
18083;DHT22;9168;51.194;6.840;2023-02-13T12:10:28;23.50;93.50
18083;DHT22;9168;51.194;6.840;2023-02-13T12:12:57;23.30;93.10
18083;DHT22;9168;51.194;6.840;2023-02-13T12:15:26;23.70;93.60
18083;DHT22;9168;51.194;6.840;2023-02-13T12:18:02;24.10;92.80
18083;DHT22;9168;51.194;6.840;2023-02-13T12:20:38;24.20;92.40
18083;DHT22;9168;51.194;6.840;2023-02-13T12:23:12;24.10;91.30
18083;DHT22;9168;51.194;6.840;2023-02-13T12:25:53;24.00;91.30
18083;DHT22;9168;51.194;6.840;2023-02-13T12:28:30;24.00;91.50
18083;DHT22;9168;51.194;6.840;2023-02-13T12:31:27;23.90;91.20
18083;DHT22;9168;51.194;6.840;2023-02-13T12:34:32;23.60;91.60
18083;DHT22;9168;51.194;6.840;2023-02-13T12:37:18;23.50;90.90
18083;DHT22;9168;51.194;6.840;2023-02-13T12:39:57;22.80;91.10
18083;DHT22;9168;51.194;6.840;2023-02-13T12:42:33;22.60;92.00
18083;DHT22;9168;51.194;6.840;2023-02-13T12:45:13;22.30;92.50
18083;DHT22;9168;51.194;6.840;2023-02-13T12:47:51;22.00;92.40
18083;DHT22;9168;51.194;6.840;2023-02-13T12:50:37;21.50;93.60
18083;DHT22;9168;51.194;6.840;2023-02-13T12:53:22;21.00;93.30
18083;DHT22;9168;51.194;6.840;2023-02-13T12:56:06;21.00;93.40
18083;DHT22;9168;51.194;6.840;2023-02-13T12:59:03;20.70;94.00
18083;DHT22;9168;51.194;6.840;2023-02-13T13:01:50;20.30;94.50
18083;DHT22;9168;51.194;6.840;2023-02-13T13:04:25;19.50;94.90
18083;DHT22;9168;51.194;6.840;2023-02-13T13:07:12;19.10;96.40
18083;DHT22;9168;51.194;6.840;2023-02-13T13:09:53;18.90;96.80
18083;DHT22;9168;51.194;6.840;2023-02-13T13:12:33;18.50;96.70
18083;DHT22;9168;51.194;6.840;2023-02-13T13:15:07;18.10;98.20
18083;DHT22;9168;51.194;6.840;2023-02-13T13:17:49;18.00;99.20
18083;DHT22;9168;51.194;6.840;2023-02-13T13:20:42;18.10;99.40
18083;DHT22;9168;51.194;6.840;2023-02-13T13:23:15;18.10;99.30
18083;DHT22;9168;51.194;6.840;2023-02-13T13:25:51;18.20;99.40
18083;DHT22;9168;51.194;6.840;2023-02-13T13:28:23;18.20;99.40
18083;DHT22;9168;51.194;6.840;2023-02-13T13:30:51;18.20;99.30
18083;DHT22;9168;51.194;6.840;2023-02-13T13:33:20;18.20;99.10
18083;DHT22;9168;51.194;6.840;2023-02-13T13:35:54;18.20;99.50
18083;DHT22;9168;51.194;6.840;2023-02-13T13:38:30;18.10;98.60
18083;DHT22;9168;51.194;6.840;2023-02-13T13:41:09;18.00;98.90
18083;DHT22;9168;51.194;6.840;2023-02-13T13:43:43;17.90;99.40
18083;DHT22;9168;51.194;6.840;2023-02-13T13:46:20;18.10;99.70
18083;DHT22;9168;51.194;6.840;2023-02-13T13:48:59;18.10;99.60
18083;DHT22;9168;51.194;6.840;2023-02-13T13:51:32;18.10;99.00
18083;DHT22;9168;51.194;6.840;2023-02-13T13:54:21;17.90;99.60
18083;DHT22;9168;51.194;6.840;2023-02-13T13:57:11;18.00;99.90
18083;DHT22;9168;51.194;6.840;2023-02-13T14:00:02;17.90;99.50
18083;DHT22;9168;51.194;6.840;2023-02-13T14:02:49;17.70;99.90
18083;DHT22;9168;51.194;6.840;2023-02-13T14:05:28;17.30;99.90
18083;DHT22;9168;51.194;6.840;2023-02-13T14:07:57;17.10;99.90
18083;DHT22;9168;51.194;6.840;2023-02-13T14:13:35;16.80;99.90
18083;DHT22;9168;51.194;6.840;2023-02-13T14:16:03;16.60;99.90
18083;DHT22;9168;51.194;6.840;2023-02-13T14:18:30;16.60;99.90
18083;DHT22;9168;51.194;6.840;2023-02-13T14:20:59;16.60;99.90
18083;DHT22;9168;51.194;6.840;2023-02-13T14:23:34;16.70;99.90
18083;DHT22;9168;51.194;6.840;2023-02-13T14:29:32;16.60;99.90
18083;DHT22;9168;51.194;6.840;2023-02-13T14:32:15;16.60;99.90
18083;DHT22;9168;51.194;6.840;2023-02-13T14:34:50;16.60;99.90
18083;DHT22;9168;51.194;6.840;2023-02-13T14:37:21;16.50;99.90
18083;DHT22;9168;51.194;6.840;2023-02-13T14:43:00;16.30;99.90
18083;DHT22;9168;51.194;6.840;2023-02-13T14:45:39;16.10;99.90
18083;DHT22;9168;51.194;6.840;2023-02-13T14:48:13;16.00;99.90
18083;DHT22;9168;51.194;6.840;2023-02-13T14:50:45;15.90;99.90
18083;DHT22;9168;51.194;6.840;2023-02-13T14:53:21;15.80;99.90
18083;DHT22;9168;51.194;6.840;2023-02-13T14:55:54;15.50;99.90
18083;DHT22;9168;51.194;6.840;2023-02-13T14:58:25;15.40;99.90
18083;DHT22;9168;51.194;6.840;2023-02-13T15:00:59;15.40;99.90
18083;DHT22;9168;51.194;6.840;2023-02-13T15:03:31;15.30;99.90
18083;DHT22;9168;51.194;6.840;2023-02-13T15:06:04;15.30;99.90
18083;DHT22;9168;51.194;6.840;2023-02-13T15:08:35;15.20;99.90
18083;DHT22;9168;51.194;6.840;2023-02-13T15:11:04;15.10;99.90
18083;DHT22;9168;51.194;6.840;2023-02-13T15:13:51;15.10;99.90
18083;DHT22;9168;51.194;6.840;2023-02-13T15:16:19;15.00;99.90
18083;DHT22;9168;51.194;6.840;2023-02-13T15:18:48;14.90;99.90
18083;DHT22;9168;51.194;6.840;2023-02-13T15:21:20;14.90;99.90
18083;DHT22;9168;51.194;6.840;2023-02-13T15:23:50;14.80;99.90
18083;DHT22;9168;51.194;6.840;2023-02-13T15:26:19;14.70;99.90
18083;DHT22;9168;51.194;6.840;2023-02-13T15:28:57;14.60;99.90
18083;DHT22;9168;51.194;6.840;2023-02-13T15:31:30;14.60;99.90
18083;DHT22;9168;51.194;6.840;2023-02-13T15:33:58;14.40;99.90
18083;DHT22;9168;51.194;6.840;2023-02-13T15:36:33;14.40;99.90
18083;DHT22;9168;51.194;6.840;2023-02-13T15:39:02;14.40;99.90
18083;DHT22;9168;51.194;6.840;2023-02-13T15:41:33;14.30;99.90
18083;DHT22;9168;51.194;6.840;2023-02-13T15:44:01;14.20;99.90
18083;DHT22;9168;51.194;6.840;2023-02-13T15:46:31;14.20;99.90
18083;DHT22;9168;51.194;6.840;2023-02-13T15:49:00;14.10;99.90
18083;DHT22;9168;51.194;6.840;2023-02-13T15:51:30;14.10;99.90
18083;DHT22;9168;51.194;6.840;2023-02-13T15:54:00;14.00;99.90
18083;DHT22;9168;51.194;6.840;2023-02-13T15:56:28;14.00;99.90
18083;DHT22;9168;51.194;6.840;2023-02-13T15:58:57;14.00;99.90
18083;DHT22;9168;51.194;6.840;2023-02-13T16:01:25;14.00;99.90
18083;DHT22;9168;51.194;6.840;2023-02-13T16:03:59;13.90;99.90
18083;DHT22;9168;51.194;6.840;2023-02-13T16:06:28;13.80;99.90
18083;DHT22;9168;51.194;6.840;2023-02-13T16:08:56;13.70;99.90
18083;DHT22;9168;51.194;6.840;2023-02-13T16:11:29;13.60;99.90
18083;DHT22;9168;51.194;6.840;2023-02-13T16:14:05;13.50;99.90
18083;DHT22;9168;51.194;6.840;2023-02-13T16:16:35;13.40;99.90
18083;DHT22;9168;51.194;6.840;2023-02-13T16:19:23;13.30;99.90
18083;DHT22;9168;51.194;6.840;2023-02-13T16:21:51;13.20;99.90
18083;DHT22;9168;51.194;6.840;2023-02-13T16:24:20;13.10;99.90
18083;DHT22;9168;51.194;6.840;2023-02-13T16:26:48;13.00;99.90
18083;DHT22;9168;51.194;6.840;2023-02-13T16:29:17;12.90;99.90
18083;DHT22;9168;51.194;6.840;2023-02-13T16:31:45;12.70;99.90
18083;DHT22;9168;51.194;6.840;2023-02-13T16:34:13;12.60;99.90
18083;DHT22;9168;51.194;6.840;2023-02-13T16:36:42;12.50;99.90
18083;DHT22;9168;51.194;6.840;2023-02-13T16:39:18;12.40;99.90
18083;DHT22;9168;51.194;6.840;2023-02-13T16:41:46;12.20;99.90
18083;DHT22;9168;51.194;6.840;2023-02-13T16:44:25;12.00;99.90